sensor_id;sensor_type;location;lat;lon;timestamp;P1;durP1;ratioP1;P2;durP2;ratioP2
51489;SDS011;57752;53.574;9.736;2022-11-20T00:01:33;13.18;;;5.93;;
51489;SDS011;57752;53.574;9.736;2022-11-20T00:06:33;15.15;;;7.90;;
51489;SDS011;57752;53.574;9.736;2022-11-20T00:11:33;21.45;;;6.53;;
51489;SDS011;57752;53.574;9.736;2022-11-20T00:16:33;18.38;;;7.50;;
51489;SDS011;57752;53.574;9.736;2022-11-20T00:21:34;17.95;;;8.25;;
51489;SDS011;57752;53.574;9.736;2022-11-20T00:26:34;25.73;;;13.35;;
51489;SDS011;57752;53.574;9.736;2022-11-20T00:31:34;19.77;;;9.05;;
51489;SDS011;57752;53.574;9.736;2022-11-20T00:36:35;20.90;;;10.70;;
51489;SDS011;57752;53.574;9.736;2022-11-20T00:41:35;19.20;;;9.52;;
51489;SDS011;57752;53.574;9.736;2022-11-20T00:46:35;16.50;;;6.97;;
51489;SDS011;57752;53.574;9.736;2022-11-20T00:51:35;17.25;;;8.60;;
51489;SDS011;57752;53.574;9.736;2022-11-20T00:56:35;17.65;;;6.88;;
51489;SDS011;57752;53.574;9.736;2022-11-20T01:01:36;17.50;;;7.18;;
51489;SDS011;57752;53.574;9.736;2022-11-20T01:06:37;16.15;;;6.85;;
51489;SDS011;57752;53.574;9.736;2022-11-20T01:11:39;17.70;;;7.80;;
51489;SDS011;57752;53.574;9.736;2022-11-20T01:16:40;21.88;;;13.40;;
51489;SDS011;57752;53.574;9.736;2022-11-20T01:21:41;16.55;;;6.78;;
51489;SDS011;57752;53.574;9.736;2022-11-20T01:26:42;14.75;;;6.45;;
51489;SDS011;57752;53.574;9.736;2022-11-20T01:31:43;18.90;;;7.10;;
51489;SDS011;57752;53.574;9.736;2022-11-20T01:36:43;17.58;;;7.35;;
51489;SDS011;57752;53.574;9.736;2022-11-20T01:41:44;16.33;;;6.78;;
51489;SDS011;57752;53.574;9.736;2022-11-20T01:47:03;16.50;;;8.95;;
51489;SDS011;57752;53.574;9.736;2022-11-20T01:52:14;17.10;;;9.03;;
51489;SDS011;57752;53.574;9.736;2022-11-20T01:57:15;14.13;;;6.70;;
51489;SDS011;57752;53.574;9.736;2022-11-20T02:02:16;15.68;;;6.82;;
51489;SDS011;57752;53.574;9.736;2022-11-20T02:07:16;15.43;;;7.68;;
51489;SDS011;57752;53.574;9.736;2022-11-20T02:12:16;15.13;;;8.60;;
51489;SDS011;57752;53.574;9.736;2022-11-20T02:17:35;13.10;;;6.30;;
51489;SDS011;57752;53.574;9.736;2022-11-20T02:22:37;14.77;;;6.13;;
51489;SDS011;57752;53.574;9.736;2022-11-20T02:27:38;14.20;;;6.35;;
51489;SDS011;57752;53.574;9.736;2022-11-20T02:32:39;15.50;;;7.05;;
51489;SDS011;57752;53.574;9.736;2022-11-20T02:37:39;14.32;;;6.80;;
51489;SDS011;57752;53.574;9.736;2022-11-20T02:42:40;23.42;;;12.77;;
51489;SDS011;57752;53.574;9.736;2022-11-20T02:47:40;16.33;;;7.22;;
51489;SDS011;57752;53.574;9.736;2022-11-20T02:52:41;32.63;;;18.40;;
51489;SDS011;57752;53.574;9.736;2022-11-20T02:57:41;14.88;;;5.65;;
51489;SDS011;57752;53.574;9.736;2022-11-20T03:02:41;14.50;;;6.25;;
51489;SDS011;57752;53.574;9.736;2022-11-20T03:07:43;21.58;;;11.68;;
51489;SDS011;57752;53.574;9.736;2022-11-20T03:12:43;13.35;;;5.88;;
51489;SDS011;57752;53.574;9.736;2022-11-20T03:17:43;18.42;;;6.45;;
51489;SDS011;57752;53.574;9.736;2022-11-20T03:22:43;15.82;;;6.60;;
51489;SDS011;57752;53.574;9.736;2022-11-20T03:27:43;13.80;;;5.85;;
51489;SDS011;57752;53.574;9.736;2022-11-20T03:32:43;17.10;;;7.93;;
51489;SDS011;57752;53.574;9.736;2022-11-20T03:37:44;15.45;;;6.97;;
51489;SDS011;57752;53.574;9.736;2022-11-20T03:42:45;16.15;;;6.97;;
51489;SDS011;57752;53.574;9.736;2022-11-20T03:47:45;16.38;;;6.70;;
51489;SDS011;57752;53.574;9.736;2022-11-20T03:52:45;14.70;;;6.95;;
51489;SDS011;57752;53.574;9.736;2022-11-20T03:57:46;17.98;;;6.97;;
51489;SDS011;57752;53.574;9.736;2022-11-20T04:02:46;16.55;;;6.95;;
51489;SDS011;57752;53.574;9.736;2022-11-20T04:07:46;21.23;;;9.30;;
51489;SDS011;57752;53.574;9.736;2022-11-20T04:12:46;23.55;;;13.55;;
51489;SDS011;57752;53.574;9.736;2022-11-20T04:17:46;13.95;;;6.57;;
51489;SDS011;57752;53.574;9.736;2022-11-20T04:22:47;16.48;;;7.68;;
51489;SDS011;57752;53.574;9.736;2022-11-20T04:27:47;16.27;;;7.00;;
51489;SDS011;57752;53.574;9.736;2022-11-20T04:32:47;16.25;;;8.05;;
51489;SDS011;57752;53.574;9.736;2022-11-20T04:37:47;19.25;;;10.93;;
51489;SDS011;57752;53.574;9.736;2022-11-20T04:42:47;19.25;;;9.23;;
51489;SDS011;57752;53.574;9.736;2022-11-20T04:47:48;31.85;;;16.15;;
51489;SDS011;57752;53.574;9.736;2022-11-20T04:52:48;18.92;;;7.53;;
51489;SDS011;57752;53.574;9.736;2022-11-20T04:57:51;15.77;;;6.88;;
51489;SDS011;57752;53.574;9.736;2022-11-20T05:02:51;24.00;;;11.05;;
51489;SDS011;57752;53.574;9.736;2022-11-20T05:07:51;17.35;;;7.93;;
51489;SDS011;57752;53.574;9.736;2022-11-20T05:12:52;23.20;;;11.25;;
51489;SDS011;57752;53.574;9.736;2022-11-20T05:17:52;16.92;;;7.32;;
51489;SDS011;57752;53.574;9.736;2022-11-20T05:22:55;15.25;;;6.70;;
51489;SDS011;57752;53.574;9.736;2022-11-20T05:27:56;16.75;;;6.53;;
51489;SDS011;57752;53.574;9.736;2022-11-20T05:32:56;17.05;;;6.43;;
51489;SDS011;57752;53.574;9.736;2022-11-20T05:37:56;17.13;;;7.18;;
51489;SDS011;57752;53.574;9.736;2022-11-20T05:42:56;14.73;;;6.70;;
51489;SDS011;57752;53.574;9.736;2022-11-20T05:47:59;18.73;;;7.15;;
51489;SDS011;57752;53.574;9.736;2022-11-20T05:53:00;17.42;;;8.23;;
51489;SDS011;57752;53.574;9.736;2022-11-20T05:58:00;17.33;;;8.02;;
51489;SDS011;57752;53.574;9.736;2022-11-20T06:03:00;18.52;;;7.30;;
51489;SDS011;57752;53.574;9.736;2022-11-20T06:08:00;16.38;;;7.55;;
51489;SDS011;57752;53.574;9.736;2022-11-20T06:13:01;18.63;;;8.10;;
51489;SDS011;57752;53.574;9.736;2022-11-20T06:18:01;17.55;;;7.43;;
51489;SDS011;57752;53.574;9.736;2022-11-20T06:23:01;19.30;;;8.23;;
51489;SDS011;57752;53.574;9.736;2022-11-20T06:28:01;18.88;;;8.70;;
51489;SDS011;57752;53.574;9.736;2022-11-20T06:33:01;17.55;;;8.40;;
51489;SDS011;57752;53.574;9.736;2022-11-20T06:38:02;18.67;;;7.95;;
51489;SDS011;57752;53.574;9.736;2022-11-20T06:43:02;18.38;;;7.50;;
51489;SDS011;57752;53.574;9.736;2022-11-20T06:48:02;18.63;;;8.23;;
51489;SDS011;57752;53.574;9.736;2022-11-20T06:53:03;21.13;;;9.05;;
51489;SDS011;57752;53.574;9.736;2022-11-20T06:58:03;18.20;;;8.20;;
51489;SDS011;57752;53.574;9.736;2022-11-20T07:03:03;16.67;;;7.18;;
51489;SDS011;57752;53.574;9.736;2022-11-20T07:08:04;19.55;;;9.30;;
51489;SDS011;57752;53.574;9.736;2022-11-20T07:13:04;17.27;;;7.93;;
51489;SDS011;57752;53.574;9.736;2022-11-20T07:18:04;17.02;;;8.10;;
51489;SDS011;57752;53.574;9.736;2022-11-20T07:23:05;17.00;;;7.85;;
51489;SDS011;57752;53.574;9.736;2022-11-20T07:28:05;17.10;;;8.30;;
51489;SDS011;57752;53.574;9.736;2022-11-20T07:33:05;19.20;;;7.40;;
51489;SDS011;57752;53.574;9.736;2022-11-20T07:38:05;19.73;;;7.88;;
51489;SDS011;57752;53.574;9.736;2022-11-20T07:43:05;23.60;;;9.63;;
51489;SDS011;57752;53.574;9.736;2022-11-20T07:48:05;19.08;;;8.63;;
51489;SDS011;57752;53.574;9.736;2022-11-20T07:53:06;19.13;;;8.95;;
51489;SDS011;57752;53.574;9.736;2022-11-20T07:58:06;18.35;;;8.77;;
51489;SDS011;57752;53.574;9.736;2022-11-20T08:03:06;17.38;;;7.70;;
51489;SDS011;57752;53.574;9.736;2022-11-20T08:08:06;18.35;;;8.27;;
51489;SDS011;57752;53.574;9.736;2022-11-20T08:13:08;18.73;;;8.00;;
51489;SDS011;57752;53.574;9.736;2022-11-20T08:18:27;15.90;;;7.18;;
51489;SDS011;57752;53.574;9.736;2022-11-20T08:23:27;17.38;;;6.88;;
51489;SDS011;57752;53.574;9.736;2022-11-20T08:28:27;17.08;;;7.00;;
51489;SDS011;57752;53.574;9.736;2022-11-20T08:33:27;15.90;;;6.35;;
51489;SDS011;57752;53.574;9.736;2022-11-20T08:38:28;14.15;;;6.68;;
51489;SDS011;57752;53.574;9.736;2022-11-20T08:43:28;15.38;;;6.05;;
51489;SDS011;57752;53.574;9.736;2022-11-20T08:48:29;14.27;;;5.38;;
51489;SDS011;57752;53.574;9.736;2022-11-20T08:53:29;14.48;;;5.57;;
51489;SDS011;57752;53.574;9.736;2022-11-20T08:58:29;13.50;;;5.38;;
51489;SDS011;57752;53.574;9.736;2022-11-20T09:03:29;12.07;;;5.30;;
51489;SDS011;57752;53.574;9.736;2022-11-20T09:08:30;12.80;;;5.25;;
51489;SDS011;57752;53.574;9.736;2022-11-20T09:13:30;13.55;;;5.80;;
51489;SDS011;57752;53.574;9.736;2022-11-20T09:18:31;16.25;;;6.15;;
51489;SDS011;57752;53.574;9.736;2022-11-20T09:23:33;14.73;;;5.88;;
51489;SDS011;57752;53.574;9.736;2022-11-20T09:28:34;16.58;;;7.82;;
51489;SDS011;57752;53.574;9.736;2022-11-20T09:33:34;16.35;;;6.65;;
51489;SDS011;57752;53.574;9.736;2022-11-20T09:38:34;17.70;;;6.18;;
51489;SDS011;57752;53.574;9.736;2022-11-20T09:43:54;17.00;;;6.65;;
51489;SDS011;57752;53.574;9.736;2022-11-20T09:49:16;14.67;;;5.77;;
51489;SDS011;57752;53.574;9.736;2022-11-20T09:54:26;14.20;;;5.32;;
51489;SDS011;57752;53.574;9.736;2022-11-20T09:59:33;12.90;;;4.82;;
51489;SDS011;57752;53.574;9.736;2022-11-20T10:04:43;10.93;;;4.10;;
51489;SDS011;57752;53.574;9.736;2022-11-20T10:09:49;11.00;;;3.90;;
51489;SDS011;57752;53.574;9.736;2022-11-20T10:25:19;11.45;;;4.10;;
51489;SDS011;57752;53.574;9.736;2022-11-20T10:30:20;10.93;;;4.22;;
51489;SDS011;57752;53.574;9.736;2022-11-20T10:35:23;11.93;;;4.75;;
51489;SDS011;57752;53.574;9.736;2022-11-20T10:45:35;11.43;;;4.50;;
51489;SDS011;57752;53.574;9.736;2022-11-20T10:50:39;10.60;;;4.35;;
51489;SDS011;57752;53.574;9.736;2022-11-20T11:00:40;11.75;;;4.78;;
51489;SDS011;57752;53.574;9.736;2022-11-20T11:05:50;15.20;;;5.45;;
51489;SDS011;57752;53.574;9.736;2022-11-20T11:10:55;13.70;;;5.07;;
51489;SDS011;57752;53.574;9.736;2022-11-20T11:15:56;10.90;;;4.50;;
51489;SDS011;57752;53.574;9.736;2022-11-20T11:20:57;12.25;;;4.50;;
51489;SDS011;57752;53.574;9.736;2022-11-20T11:25:59;11.00;;;4.30;;
51489;SDS011;57752;53.574;9.736;2022-11-20T11:31:00;13.20;;;5.53;;
51489;SDS011;57752;53.574;9.736;2022-11-20T11:36:01;12.02;;;6.00;;
51489;SDS011;57752;53.574;9.736;2022-11-20T11:41:03;16.00;;;5.53;;
51489;SDS011;57752;53.574;9.736;2022-11-20T11:46:06;12.32;;;4.90;;
51489;SDS011;57752;53.574;9.736;2022-11-20T11:51:09;13.38;;;5.40;;
51489;SDS011;57752;53.574;9.736;2022-11-20T11:56:09;11.63;;;5.13;;
51489;SDS011;57752;53.574;9.736;2022-11-20T12:06:14;11.52;;;4.47;;
51489;SDS011;57752;53.574;9.736;2022-11-20T12:16:16;10.95;;;4.53;;
51489;SDS011;57752;53.574;9.736;2022-11-20T12:21:18;12.93;;;4.50;;
51489;SDS011;57752;53.574;9.736;2022-11-20T12:26:35;10.90;;;4.32;;
51489;SDS011;57752;53.574;9.736;2022-11-20T12:32:40;11.38;;;4.47;;
51489;SDS011;57752;53.574;9.736;2022-11-20T12:53:36;10.68;;;4.28;;
51489;SDS011;57752;53.574;9.736;2022-11-20T12:58:44;10.50;;;4.30;;
51489;SDS011;57752;53.574;9.736;2022-11-20T13:03:50;11.55;;;4.35;;
51489;SDS011;57752;53.574;9.736;2022-11-20T13:19:01;12.27;;;6.68;;
51489;SDS011;57752;53.574;9.736;2022-11-20T13:24:19;12.90;;;5.03;;
51489;SDS011;57752;53.574;9.736;2022-11-20T13:29:19;10.95;;;4.55;;
51489;SDS011;57752;53.574;9.736;2022-11-20T13:34:24;13.23;;;6.22;;
51489;SDS011;57752;53.574;9.736;2022-11-20T13:39:26;11.10;;;4.40;;
51489;SDS011;57752;53.574;9.736;2022-11-20T13:49:33;14.48;;;4.75;;
51489;SDS011;57752;53.574;9.736;2022-11-20T13:54:48;11.63;;;4.30;;
51489;SDS011;57752;53.574;9.736;2022-11-20T13:59:56;12.07;;;5.60;;
51489;SDS011;57752;53.574;9.736;2022-11-20T14:04:57;10.65;;;4.10;;
51489;SDS011;57752;53.574;9.736;2022-11-20T14:09:58;10.52;;;4.20;;
51489;SDS011;57752;53.574;9.736;2022-11-20T14:14:58;10.95;;;4.80;;
51489;SDS011;57752;53.574;9.736;2022-11-20T14:20:00;11.93;;;5.00;;
51489;SDS011;57752;53.574;9.736;2022-11-20T14:25:14;11.32;;;4.35;;
51489;SDS011;57752;53.574;9.736;2022-11-20T14:30:18;11.55;;;4.90;;
51489;SDS011;57752;53.574;9.736;2022-11-20T14:35:26;11.65;;;4.10;;
51489;SDS011;57752;53.574;9.736;2022-11-20T14:40:31;11.30;;;4.93;;
51489;SDS011;57752;53.574;9.736;2022-11-20T14:45:31;11.82;;;4.95;;
51489;SDS011;57752;53.574;9.736;2022-11-20T14:50:32;11.60;;;4.88;;
51489;SDS011;57752;53.574;9.736;2022-11-20T14:55:33;12.60;;;5.47;;
51489;SDS011;57752;53.574;9.736;2022-11-20T15:00:34;13.40;;;5.10;;
51489;SDS011;57752;53.574;9.736;2022-11-20T15:05:43;11.65;;;4.60;;
51489;SDS011;57752;53.574;9.736;2022-11-20T15:10:53;12.50;;;4.75;;
51489;SDS011;57752;53.574;9.736;2022-11-20T15:15:54;11.55;;;4.93;;
51489;SDS011;57752;53.574;9.736;2022-11-20T15:20:55;12.80;;;4.63;;
51489;SDS011;57752;53.574;9.736;2022-11-20T15:25:56;13.73;;;4.88;;
51489;SDS011;57752;53.574;9.736;2022-11-20T15:30:56;10.85;;;4.50;;
51489;SDS011;57752;53.574;9.736;2022-11-20T15:35:56;11.50;;;5.03;;
51489;SDS011;57752;53.574;9.736;2022-11-20T15:40:57;10.85;;;4.40;;
51489;SDS011;57752;53.574;9.736;2022-11-20T15:46:01;14.38;;;6.97;;
51489;SDS011;57752;53.574;9.736;2022-11-20T15:56:12;13.23;;;5.10;;
51489;SDS011;57752;53.574;9.736;2022-11-20T16:01:13;10.77;;;4.50;;
51489;SDS011;57752;53.574;9.736;2022-11-20T16:06:14;12.40;;;5.07;;
51489;SDS011;57752;53.574;9.736;2022-11-20T16:11:16;13.30;;;5.53;;
51489;SDS011;57752;53.574;9.736;2022-11-20T16:16:24;11.50;;;4.88;;
51489;SDS011;57752;53.574;9.736;2022-11-20T16:21:28;11.75;;;4.88;;
51489;SDS011;57752;53.574;9.736;2022-11-20T16:26:31;14.43;;;5.90;;
51489;SDS011;57752;53.574;9.736;2022-11-20T16:31:32;15.82;;;5.95;;
51489;SDS011;57752;53.574;9.736;2022-11-20T16:36:32;14.70;;;5.82;;
51489;SDS011;57752;53.574;9.736;2022-11-20T16:41:33;15.23;;;5.93;;
51489;SDS011;57752;53.574;9.736;2022-11-20T16:46:33;13.15;;;5.60;;
51489;SDS011;57752;53.574;9.736;2022-11-20T16:51:34;14.63;;;6.75;;
51489;SDS011;57752;53.574;9.736;2022-11-20T16:56:35;16.10;;;7.47;;
51489;SDS011;57752;53.574;9.736;2022-11-20T17:01:35;18.15;;;7.00;;
51489;SDS011;57752;53.574;9.736;2022-11-20T17:06:38;15.45;;;7.10;;
51489;SDS011;57752;53.574;9.736;2022-11-20T17:11:39;16.52;;;7.20;;
51489;SDS011;57752;53.574;9.736;2022-11-20T17:16:40;16.30;;;6.40;;
51489;SDS011;57752;53.574;9.736;2022-11-20T17:21:40;15.43;;;6.88;;
51489;SDS011;57752;53.574;9.736;2022-11-20T17:26:41;15.82;;;6.72;;
51489;SDS011;57752;53.574;9.736;2022-11-20T17:31:41;18.35;;;6.65;;
51489;SDS011;57752;53.574;9.736;2022-11-20T17:36:42;17.48;;;8.05;;
51489;SDS011;57752;53.574;9.736;2022-11-20T17:41:45;16.10;;;7.50;;
51489;SDS011;57752;53.574;9.736;2022-11-20T17:47:05;18.92;;;8.15;;
51489;SDS011;57752;53.574;9.736;2022-11-20T17:52:05;20.95;;;9.63;;
51489;SDS011;57752;53.574;9.736;2022-11-20T17:57:05;23.05;;;11.00;;
51489;SDS011;57752;53.574;9.736;2022-11-20T18:02:24;26.85;;;13.68;;
51489;SDS011;57752;53.574;9.736;2022-11-20T18:07:25;29.17;;;13.02;;
51489;SDS011;57752;53.574;9.736;2022-11-20T18:12:25;28.95;;;12.80;;
51489;SDS011;57752;53.574;9.736;2022-11-20T18:17:25;25.63;;;12.50;;
51489;SDS011;57752;53.574;9.736;2022-11-20T18:22:25;27.25;;;13.77;;
51489;SDS011;57752;53.574;9.736;2022-11-20T18:27:25;30.15;;;15.18;;
51489;SDS011;57752;53.574;9.736;2022-11-20T18:32:25;34.00;;;15.57;;
51489;SDS011;57752;53.574;9.736;2022-11-20T18:37:26;38.75;;;18.25;;
51489;SDS011;57752;53.574;9.736;2022-11-20T18:42:26;39.97;;;18.98;;
51489;SDS011;57752;53.574;9.736;2022-11-20T18:47:45;39.10;;;19.02;;
51489;SDS011;57752;53.574;9.736;2022-11-20T18:52:45;41.97;;;19.85;;
51489;SDS011;57752;53.574;9.736;2022-11-20T18:57:46;42.55;;;20.65;;
51489;SDS011;57752;53.574;9.736;2022-11-20T19:02:47;43.42;;;19.25;;
51489;SDS011;57752;53.574;9.736;2022-11-20T19:07:47;41.42;;;20.15;;
51489;SDS011;57752;53.574;9.736;2022-11-20T19:12:47;39.63;;;20.13;;
51489;SDS011;57752;53.574;9.736;2022-11-20T19:17:47;42.05;;;20.42;;
51489;SDS011;57752;53.574;9.736;2022-11-20T19:22:49;40.65;;;20.13;;
51489;SDS011;57752;53.574;9.736;2022-11-20T19:27:49;39.53;;;18.98;;
51489;SDS011;57752;53.574;9.736;2022-11-20T19:32:49;40.25;;;19.77;;
51489;SDS011;57752;53.574;9.736;2022-11-20T19:37:50;43.42;;;19.67;;
51489;SDS011;57752;53.574;9.736;2022-11-20T19:42:50;46.80;;;21.00;;
51489;SDS011;57752;53.574;9.736;2022-11-20T19:47:50;37.15;;;18.48;;
51489;SDS011;57752;53.574;9.736;2022-11-20T19:52:50;43.80;;;21.02;;
51489;SDS011;57752;53.574;9.736;2022-11-20T19:57:50;40.90;;;19.38;;
51489;SDS011;57752;53.574;9.736;2022-11-20T20:02:50;41.90;;;19.63;;
51489;SDS011;57752;53.574;9.736;2022-11-20T20:07:51;41.67;;;20.90;;
51489;SDS011;57752;53.574;9.736;2022-11-20T20:12:51;42.97;;;19.30;;
51489;SDS011;57752;53.574;9.736;2022-11-20T20:17:51;40.60;;;19.60;;
51489;SDS011;57752;53.574;9.736;2022-11-20T20:22:52;46.20;;;22.42;;
51489;SDS011;57752;53.574;9.736;2022-11-20T20:27:52;46.75;;;22.48;;
51489;SDS011;57752;53.574;9.736;2022-11-20T20:32:52;43.13;;;21.70;;
51489;SDS011;57752;53.574;9.736;2022-11-20T20:37:52;38.85;;;18.98;;
51489;SDS011;57752;53.574;9.736;2022-11-20T20:42:53;41.55;;;21.08;;
51489;SDS011;57752;53.574;9.736;2022-11-20T20:47:53;50.78;;;23.10;;
51489;SDS011;57752;53.574;9.736;2022-11-20T20:52:54;48.03;;;22.77;;
51489;SDS011;57752;53.574;9.736;2022-11-20T20:57:54;48.22;;;23.77;;
51489;SDS011;57752;53.574;9.736;2022-11-20T21:02:55;57.33;;;24.15;;
51489;SDS011;57752;53.574;9.736;2022-11-20T21:07:55;51.08;;;23.38;;
51489;SDS011;57752;53.574;9.736;2022-11-20T21:13:14;48.58;;;22.02;;
51489;SDS011;57752;53.574;9.736;2022-11-20T21:18:14;46.22;;;21.65;;
51489;SDS011;57752;53.574;9.736;2022-11-20T21:23:15;43.25;;;19.70;;
51489;SDS011;57752;53.574;9.736;2022-11-20T21:28:15;45.45;;;19.90;;
51489;SDS011;57752;53.574;9.736;2022-11-20T21:33:15;49.10;;;22.75;;
51489;SDS011;57752;53.574;9.736;2022-11-20T21:38:15;55.67;;;24.30;;
51489;SDS011;57752;53.574;9.736;2022-11-20T21:43:16;54.28;;;23.92;;
51489;SDS011;57752;53.574;9.736;2022-11-20T21:48:16;46.10;;;22.08;;
51489;SDS011;57752;53.574;9.736;2022-11-20T21:53:16;48.45;;;22.58;;
51489;SDS011;57752;53.574;9.736;2022-11-20T21:58:16;41.00;;;20.27;;
51489;SDS011;57752;53.574;9.736;2022-11-20T22:03:16;51.40;;;22.92;;
51489;SDS011;57752;53.574;9.736;2022-11-20T22:08:17;53.03;;;24.83;;
51489;SDS011;57752;53.574;9.736;2022-11-20T22:13:17;46.63;;;22.27;;
51489;SDS011;57752;53.574;9.736;2022-11-20T22:18:40;46.97;;;22.27;;
51489;SDS011;57752;53.574;9.736;2022-11-20T22:23:40;51.45;;;23.00;;
51489;SDS011;57752;53.574;9.736;2022-11-20T22:28:41;46.45;;;21.73;;
51489;SDS011;57752;53.574;9.736;2022-11-20T22:33:41;55.08;;;22.35;;
51489;SDS011;57752;53.574;9.736;2022-11-20T22:38:42;48.55;;;22.33;;
51489;SDS011;57752;53.574;9.736;2022-11-20T22:43:42;59.83;;;25.60;;
51489;SDS011;57752;53.574;9.736;2022-11-20T22:48:43;51.75;;;23.42;;
51489;SDS011;57752;53.574;9.736;2022-11-20T22:53:44;46.00;;;24.05;;
51489;SDS011;57752;53.574;9.736;2022-11-20T22:58:45;60.55;;;26.17;;
51489;SDS011;57752;53.574;9.736;2022-11-20T23:03:49;54.92;;;25.70;;
51489;SDS011;57752;53.574;9.736;2022-11-20T23:08:50;56.05;;;27.83;;
51489;SDS011;57752;53.574;9.736;2022-11-20T23:18:55;81.40;;;33.80;;
51489;SDS011;57752;53.574;9.736;2022-11-20T23:23:56;80.10;;;33.80;;
51489;SDS011;57752;53.574;9.736;2022-11-20T23:28:57;60.72;;;28.13;;
51489;SDS011;57752;53.574;9.736;2022-11-20T23:33:57;60.40;;;27.40;;
51489;SDS011;57752;53.574;9.736;2022-11-20T23:38:58;51.67;;;25.25;;
51489;SDS011;57752;53.574;9.736;2022-11-20T23:43:58;55.70;;;24.73;;
51489;SDS011;57752;53.574;9.736;2022-11-20T23:48:58;59.03;;;27.58;;
51489;SDS011;57752;53.574;9.736;2022-11-20T23:53:58;58.05;;;27.98;;
51489;SDS011;57752;53.574;9.736;2022-11-20T23:58:58;55.70;;;26.50;;
